createdAt,value
2023-01-21T00:01:21.584Z,102650.50
2023-01-21T00:03:51.160Z,102645.88
2023-01-21T00:06:19.138Z,102639.78
2023-01-21T00:08:47.287Z,102645.41
2023-01-21T00:11:16.638Z,102651.72
2023-01-21T00:13:45.646Z,102660.66
2023-01-21T00:16:13.964Z,102651.72
2023-01-21T00:18:42.835Z,102659.28
2023-01-21T00:21:15.568Z,102660.31
2023-01-21T00:23:46.048Z,102665.41
2023-01-21T00:26:14.377Z,102672.50
2023-01-21T00:28:43.858Z,102678.06
2023-01-21T00:31:13.140Z,102676.38
2023-01-21T00:33:42.292Z,102675.91
2023-01-21T00:36:12.319Z,102674.44
2023-01-21T00:38:42.062Z,102679.81
2023-01-21T00:41:12.424Z,102683.44
2023-01-21T00:43:40.892Z,102682.00
2023-01-21T00:46:09.304Z,102682.50
2023-01-21T00:48:37.984Z,102693.09
2023-01-21T00:51:06.230Z,102691.25
2023-01-21T00:53:38.238Z,102703.56
2023-01-21T00:56:09.967Z,102707.34
2023-01-21T00:58:38.681Z,102700.28
2023-01-21T01:01:09.935Z,102701.53
2023-01-21T01:03:39.544Z,102701.53
2023-01-21T01:06:09.985Z,102698.09
2023-01-21T01:08:38.121Z,102700.03
2023-01-21T01:11:07.718Z,102709.09
2023-01-21T01:13:37.344Z,102711.16
2023-01-21T01:16:06.558Z,102714.78
2023-01-21T01:18:36.279Z,102717.97
2023-01-21T01:21:05.580Z,102724.81
2023-01-21T01:23:33.751Z,102722.97
2023-01-21T01:26:03.811Z,102727.13
2023-01-21T01:28:34.345Z,102731.03
2023-01-21T01:31:05.036Z,102721.50
2023-01-21T01:33:35.251Z,102732.88
2023-01-21T01:36:04.279Z,102734.19
2023-01-21T01:38:32.275Z,102737.84
2023-01-21T01:41:01.494Z,102744.22
2023-01-21T01:43:51.736Z,102740.53
2023-01-21T01:46:19.979Z,102743.22
2023-01-21T01:48:52.232Z,102750.28
2023-01-21T01:51:25.023Z,102747.59
2023-01-21T01:53:54.615Z,102742.47
2023-01-21T01:56:23.272Z,102747.84
2023-01-21T01:58:54.649Z,102751.41
2023-01-21T02:01:23.427Z,102753.09
2023-01-21T02:03:59.367Z,102761.41
2023-01-21T02:06:28.539Z,102772.13
2023-01-21T02:08:57.377Z,102774.91
2023-01-21T02:11:25.605Z,102773.97
2023-01-21T02:13:59.157Z,102778.34
2023-01-21T02:16:53.204Z,102783.59
2023-01-21T02:19:54.414Z,102780.03
2023-01-21T02:22:29.302Z,102779.09
2023-01-21T02:25:45.515Z,102783.34
2023-01-21T02:28:43.516Z,102784.06
2023-01-21T02:31:41.094Z,102792.84
2023-01-21T02:34:19.512Z,102791.03
2023-01-21T02:37:11.806Z,102796.38
2023-01-21T02:39:54.688Z,102793.00
2023-01-21T02:42:29.922Z,102794.44
2023-01-21T02:45:06.525Z,102797.13
2023-01-21T02:47:41.626Z,102798.81
2023-01-21T02:50:16.837Z,102796.38
2023-01-21T02:52:44.997Z,102802.75
2023-01-21T02:55:16.300Z,102807.59
2023-01-21T02:57:49.341Z,102814.41
2023-01-21T03:00:20.760Z,102807.59
2023-01-21T03:03:22.752Z,102816.63
2023-01-21T03:06:34.811Z,102821.75
2023-01-21T03:09:17.565Z,102828.41
2023-01-21T03:11:53.903Z,102825.34
2023-01-21T03:14:44.608Z,102827.28
2023-01-21T03:17:22.543Z,102833.25
2023-01-21T03:19:58.360Z,102829.34
2023-01-21T03:22:33.967Z,102836.75
2023-01-21T03:25:04.186Z,102836.25
2023-01-21T03:27:34.305Z,102840.25
2023-01-21T03:30:06.872Z,102835.97
2023-01-21T03:32:36.935Z,102851.78
2023-01-21T03:35:07.860Z,102848.69
2023-01-21T03:37:41.965Z,102844.66
2023-01-21T03:40:19.214Z,102853.88
2023-01-21T03:42:50.432Z,102853.13
2023-01-21T03:45:27.844Z,102852.63
2023-01-21T03:48:01.618Z,102857.38
2023-01-21T03:50:37.460Z,102864.50
2023-01-21T03:53:07.866Z,102867.66
2023-01-21T03:55:37.374Z,102867.03
2023-01-21T03:58:05.392Z,102875.38
2023-01-21T04:00:59.395Z,102884.63
2023-01-21T04:03:27.547Z,102883.97
2023-01-21T04:05:55.510Z,102883.66
2023-01-21T04:08:25.014Z,102892.78
2023-01-21T04:10:53.335Z,102884.22
2023-01-21T04:13:21.468Z,102887.34
2023-01-21T04:15:49.434Z,102890.00
2023-01-21T04:18:17.342Z,102883.59
2023-01-21T04:20:47.366Z,102883.09
2023-01-21T04:23:15.410Z,102889.38
2023-01-21T04:25:44.817Z,102893.47
2023-01-21T04:28:12.843Z,102894.41
2023-01-21T04:30:41.022Z,102901.19
2023-01-21T04:33:09.297Z,102905.44
2023-01-21T04:35:39.546Z,102909.06
2023-01-21T04:38:07.688Z,102905.00
2023-01-21T04:40:35.704Z,102916.75
2023-01-21T04:43:05.170Z,102916.97
2023-01-21T04:45:33.391Z,102917.94
2023-01-21T04:48:01.483Z,102921.78
2023-01-21T04:50:29.463Z,102926.78
2023-01-21T04:52:57.451Z,102928.72
2023-01-21T04:55:26.393Z,102932.78
2023-01-21T04:57:54.522Z,102933.19
2023-01-21T05:00:24.334Z,102933.41
2023-01-21T05:02:52.398Z,102939.03
2023-01-21T05:05:20.856Z,102938.28
2023-01-21T05:07:48.877Z,102944.88
2023-01-21T05:10:18.182Z,102943.41
2023-01-21T05:12:46.489Z,102954.16
2023-01-21T05:15:14.443Z,102955.31
2023-01-21T05:17:43.903Z,102955.53
2023-01-21T05:20:12.983Z,102958.50
2023-01-21T05:22:41.072Z,102956.00
2023-01-21T05:25:09.698Z,102950.13
2023-01-21T05:27:39.896Z,102958.53
2023-01-21T05:30:09.131Z,102959.69
2023-01-21T05:32:37.498Z,102961.81
2023-01-21T05:35:07.427Z,102965.59
2023-01-21T05:37:35.384Z,102968.78
2023-01-21T05:40:03.371Z,102969.84
2023-01-21T05:42:31.355Z,102972.59
2023-01-21T05:45:01.495Z,102975.38
2023-01-21T05:47:29.586Z,102968.69
2023-01-21T05:49:57.571Z,102975.09
2023-01-21T05:52:26.954Z,102983.38
2023-01-21T05:55:01.978Z,102988.91
2023-01-21T05:57:31.107Z,102995.41
2023-01-21T05:59:59.373Z,103002.38
2023-01-21T06:02:27.883Z,102997.31
2023-01-21T06:04:55.962Z,103006.44
2023-01-21T06:07:23.978Z,103011.03
2023-01-21T06:09:53.326Z,103009.50
2023-01-21T06:12:22.714Z,103008.72
2023-01-21T06:14:52.131Z,103009.03
2023-01-21T06:17:20.149Z,103025.88
2023-01-21T06:19:48.171Z,103026.06
2023-01-21T06:22:16.688Z,103033.13
2023-01-21T06:24:44.908Z,103031.22
2023-01-21T06:27:14.242Z,103044.44
2023-01-21T06:29:42.213Z,103041.63
2023-01-21T06:32:10.334Z,103047.63
2023-01-21T06:34:38.323Z,103055.38
2023-01-21T06:37:06.362Z,103058.69
2023-01-21T06:39:34.414Z,103063.66
2023-01-21T06:42:02.379Z,103064.22
2023-01-21T06:44:31.837Z,103075.28
2023-01-21T06:47:00.937Z,103076.66
2023-01-21T06:49:29.477Z,103076.06
2023-01-21T06:51:57.523Z,103078.34
2023-01-21T06:54:25.573Z,103084.25
2023-01-21T06:56:53.679Z,103068.03
2023-01-21T06:59:21.777Z,103078.38
2023-01-21T07:01:51.480Z,103079.88
2023-01-21T07:04:19.512Z,103081.41
2023-01-21T07:06:47.464Z,103082.91
2023-01-21T07:09:15.533Z,103082.72
2023-01-21T07:11:43.507Z,103087.97
2023-01-21T07:14:11.775Z,103080.81
2023-01-21T07:16:40.057Z,103088.75
2023-01-21T07:19:09.407Z,103090.53
2023-01-21T07:21:37.509Z,103085.31
2023-01-21T07:24:05.798Z,103085.50
2023-01-21T07:26:36.201Z,103096.19
2023-01-21T07:29:04.287Z,103096.28
2023-01-21T07:31:32.561Z,103107.16
2023-01-21T07:34:00.567Z,103097.59
2023-01-21T07:36:29.915Z,103107.56
2023-01-21T07:38:58.326Z,103106.78
2023-01-21T07:41:27.517Z,103113.19
2023-01-21T07:43:55.511Z,103117.88
2023-01-21T07:46:24.502Z,103117.28
2023-01-21T07:48:52.821Z,103117.47
2023-01-21T07:51:21.375Z,103119.47
2023-01-21T07:53:50.795Z,103122.25
2023-01-21T07:56:20.347Z,103122.63
2023-01-21T07:58:48.380Z,103133.47
2023-01-21T08:01:16.546Z,103135.59
2023-01-21T08:03:44.525Z,103135.75
2023-01-21T08:06:12.561Z,103140.41
2023-01-21T08:08:40.567Z,103148.53
2023-01-21T08:11:10.040Z,103155.00
2023-01-21T08:13:38.030Z,103158.78
2023-01-21T08:16:06.919Z,103170.59
2023-01-21T08:18:34.966Z,103168.91
2023-01-21T08:21:02.957Z,103167.28
2023-01-21T08:23:31.006Z,103176.31
2023-01-21T08:26:02.731Z,103179.06
2023-01-21T08:28:32.429Z,103173.72
2023-01-21T08:31:05.347Z,103176.50
2023-01-21T08:33:33.431Z,103176.50
2023-01-21T08:36:02.120Z,103174.75
2023-01-21T08:38:30.211Z,103181.13
2023-01-21T08:40:58.921Z,103185.63
2023-01-21T08:43:27.527Z,103188.41
2023-01-21T08:46:01.409Z,103197.06
2023-01-21T08:48:29.509Z,103199.56
2023-01-21T08:51:00.640Z,103205.06
2023-01-21T08:53:28.528Z,103193.56
2023-01-21T08:56:00.543Z,103195.19
2023-01-21T08:58:28.785Z,103193.44
2023-01-21T09:00:58.218Z,103190.59
2023-01-21T09:03:26.304Z,103190.59
2023-01-21T09:05:55.788Z,103197.66
2023-01-21T09:08:23.771Z,103200.94
2023-01-21T09:11:04.011Z,103209.69
2023-01-21T09:13:33.992Z,103218.28
2023-01-21T09:16:08.358Z,103220.78
2023-01-21T09:18:37.231Z,103220.63
2023-01-21T09:21:06.727Z,103231.13
2023-01-21T09:23:35.539Z,103227.28
2023-01-21T09:26:04.920Z,103228.94
2023-01-21T09:28:34.513Z,103230.63
2023-01-21T09:31:05.948Z,103234.78
2023-01-21T09:33:35.817Z,103237.25
2023-01-21T09:36:06.356Z,103244.13
2023-01-21T09:38:34.631Z,103249.28
2023-01-21T09:41:12.795Z,103248.16
2023-01-21T09:43:46.766Z,103254.84
2023-01-21T09:46:22.883Z,103261.72
2023-01-21T09:48:51.953Z,103263.25
2023-01-21T09:51:27.226Z,103265.59
2023-01-21T09:53:59.029Z,103265.97
2023-01-21T09:56:35.065Z,103268.28
2023-01-21T09:59:08.614Z,103276.69
2023-01-21T10:01:42.067Z,103283.38
2023-01-21T10:04:31.377Z,103282.03
2023-01-21T10:07:04.355Z,103280.63
2023-01-21T10:09:43.548Z,103276.22
2023-01-21T10:12:26.382Z,103279.25
2023-01-21T10:15:13.892Z,103282.50
2023-01-21T10:18:11.185Z,103286.78
2023-01-21T10:20:47.095Z,103278.16
2023-01-21T10:23:21.584Z,103283.84
2023-01-21T10:25:50.595Z,103280.69
2023-01-21T10:28:23.769Z,103291.66
2023-01-21T10:30:53.950Z,103292.41
2023-01-21T10:33:26.584Z,103292.97
2023-01-21T10:36:29.650Z,103288.06
2023-01-21T10:39:32.587Z,103286.91
2023-01-21T10:42:26.803Z,103281.25
2023-01-21T10:45:00.836Z,103287.16
2023-01-21T10:47:42.185Z,103299.78
2023-01-21T10:50:28.994Z,103301.31
2023-01-21T10:53:02.191Z,103287.91
2023-01-21T10:55:44.203Z,103295.63
2023-01-21T10:58:25.582Z,103293.50
2023-01-21T11:00:55.309Z,103285.25
2023-01-21T11:03:32.934Z,103285.91
2023-01-21T11:06:06.970Z,103285.72
2023-01-21T11:08:35.518Z,103288.19
2023-01-21T11:11:04.279Z,103289.44
2023-01-21T11:13:32.381Z,103282.94
2023-01-21T11:16:01.105Z,103281.78
2023-01-21T11:18:33.150Z,103281.22
2023-01-21T11:21:05.455Z,103287.13
2023-01-21T11:23:35.767Z,103289.50
2023-01-21T11:26:07.728Z,103287.25
2023-01-21T11:28:37.437Z,103284.25
2023-01-21T11:31:11.170Z,103293.69
2023-01-21T11:33:40.620Z,103285.09
2023-01-21T11:36:16.194Z,103283.91
2023-01-21T11:38:45.558Z,103281.53
2023-01-21T11:41:28.401Z,103291.00
2023-01-21T11:44:22.722Z,103284.13
2023-01-21T11:46:51.264Z,103289.13
2023-01-21T11:49:28.534Z,103286.88
2023-01-21T11:52:18.128Z,103277.44
2023-01-21T11:54:46.889Z,103276.00
2023-01-21T11:57:30.464Z,103287.03
2023-01-21T12:00:19.277Z,103277.81
2023-01-21T12:02:50.382Z,103277.25
2023-01-21T12:05:24.984Z,103275.78
2023-01-21T12:07:55.595Z,103279.28
2023-01-21T12:10:28.901Z,103280.66
2023-01-21T12:13:12.886Z,103278.25
2023-01-21T12:15:52.979Z,103270.22
2023-01-21T12:18:32.776Z,103270.41
2023-01-21T12:21:06.408Z,103273.97
2023-01-21T12:23:58.613Z,103258.84
2023-01-21T12:26:48.586Z,103261.31
2023-01-21T12:29:30.172Z,103262.56
2023-01-21T12:32:02.967Z,103256.97
2023-01-21T12:34:36.647Z,103250.72
2023-01-21T12:37:10.989Z,103248.41
2023-01-21T12:39:44.590Z,103251.09
2023-01-21T12:42:16.174Z,103246.31
2023-01-21T12:44:50.526Z,103244.44
2023-01-21T12:47:27.712Z,103244.63
2023-01-21T12:50:07.535Z,103243.34
2023-01-21T12:52:42.761Z,103247.69
2023-01-21T12:55:20.237Z,103239.56
2023-01-21T12:57:55.289Z,103238.75
2023-01-21T13:00:26.289Z,103235.69
2023-01-21T13:03:00.423Z,103231.69
2023-01-21T13:05:39.098Z,103232.59
2023-01-21T13:08:26.011Z,103234.47
2023-01-21T13:11:02.327Z,103234.56
2023-01-21T13:13:35.979Z,103237.25
2023-01-21T13:16:08.252Z,103240.81
2023-01-21T13:19:01.869Z,103236.09
2023-01-21T13:21:39.641Z,103234.59
2023-01-21T13:24:17.237Z,103241.59
2023-01-21T13:26:55.249Z,103233.31
2023-01-21T13:29:34.782Z,103235.63
2023-01-21T13:32:20.540Z,103240.16
2023-01-21T13:34:58.592Z,103232.97
2023-01-21T13:37:33.577Z,103231.84
2023-01-21T13:40:22.934Z,103236.72
2023-01-21T13:43:01.585Z,103233.03
2023-01-21T13:45:41.296Z,103236.22
2023-01-21T13:48:37.493Z,103231.41
2023-01-21T13:51:39.567Z,103227.44
2023-01-21T13:54:28.496Z,103225.47
2023-01-21T13:57:10.405Z,103230.50
2023-01-21T13:59:46.250Z,103233.19
2023-01-21T14:02:19.512Z,103232.69
2023-01-21T14:04:57.223Z,103234.53
2023-01-21T14:07:29.476Z,103232.84
2023-01-21T14:10:04.303Z,103231.72
2023-01-21T14:12:49.764Z,103243.06
2023-01-21T14:15:38.953Z,103234.44
2023-01-21T14:18:21.375Z,103230.97
2023-01-21T14:21:22.985Z,103233.56
2023-01-21T14:24:05.569Z,103248.63
2023-01-21T14:26:56.178Z,103244.78
2023-01-21T14:29:31.901Z,103251.91
2023-01-21T14:32:12.849Z,103248.06
2023-01-21T14:34:49.677Z,103254.66
2023-01-21T14:37:25.480Z,103253.09
2023-01-21T14:40:04.457Z,103250.97
2023-01-21T14:42:44.301Z,103246.84
2023-01-21T14:45:14.155Z,103250.00
2023-01-21T14:47:46.625Z,103246.63
2023-01-21T14:50:46.934Z,103250.09
2023-01-21T14:53:21.444Z,103259.78
2023-01-21T14:56:08.953Z,103259.69
2023-01-21T14:58:37.924Z,103256.00
2023-01-21T15:01:07.945Z,103267.28
2023-01-21T15:03:49.558Z,103257.94
2023-01-21T15:06:22.503Z,103258.16
2023-01-21T15:08:53.828Z,103263.53
2023-01-21T15:11:24.623Z,103270.78
2023-01-21T15:14:07.369Z,103269.56
2023-01-21T15:16:37.417Z,103274.00
2023-01-21T15:19:40.187Z,103270.97
2023-01-21T15:22:21.939Z,103276.63
2023-01-21T15:25:20.954Z,103277.00
2023-01-21T15:28:29.089Z,103275.66
2023-01-21T15:31:01.586Z,103278.97
2023-01-21T15:33:31.240Z,103284.97
2023-01-21T15:36:02.028Z,103291.34
2023-01-21T15:38:29.985Z,103288.28
2023-01-21T15:41:01.937Z,103297.59
2023-01-21T15:43:36.514Z,103294.31
2023-01-21T15:46:19.692Z,103300.03
2023-01-21T15:49:12.412Z,103295.41
2023-01-21T15:51:59.114Z,103300.31
2023-01-21T15:54:34.947Z,103305.44
2023-01-21T15:57:27.862Z,103304.69
2023-01-21T16:00:22.882Z,103309.59
2023-01-21T16:02:57.344Z,103310.19
2023-01-21T16:05:39.196Z,103321.09
2023-01-21T16:08:25.771Z,103319.84
2023-01-21T16:11:08.525Z,103320.34
2023-01-21T16:13:48.235Z,103316.16
2023-01-21T16:16:27.115Z,103330.09
2023-01-21T16:19:00.403Z,103331.53
2023-01-21T16:21:34.312Z,103333.00
2023-01-21T16:24:06.837Z,103336.88
2023-01-21T16:26:34.970Z,103342.13
2023-01-21T16:29:02.994Z,103336.34
2023-01-21T16:31:31.126Z,103331.44
2023-01-21T16:33:59.351Z,103340.16
2023-01-21T16:36:27.586Z,103339.69
2023-01-21T16:38:55.994Z,103332.19
2023-01-21T16:41:27.696Z,103331.78
2023-01-21T16:43:59.919Z,103346.88
2023-01-21T16:46:32.731Z,103338.53
2023-01-21T16:49:04.763Z,103342.84
2023-01-21T16:51:35.691Z,103354.16
2023-01-21T16:54:24.211Z,103352.25
2023-01-21T16:56:55.889Z,103356.44
2023-01-21T16:59:27.532Z,103360.31
2023-01-21T17:01:56.934Z,103372.47
2023-01-21T17:04:25.145Z,103365.03
2023-01-21T17:06:54.046Z,103368.47
2023-01-21T17:09:27.752Z,103367.09
2023-01-21T17:11:58.429Z,103369.13
2023-01-21T17:14:29.947Z,103370.09
2023-01-21T17:17:01.238Z,103372.34
2023-01-21T17:19:33.318Z,103367.72
2023-01-21T17:22:04.931Z,103366.41
2023-01-21T17:24:39.243Z,103370.72
2023-01-21T17:27:11.303Z,103377.44
2023-01-21T17:29:39.582Z,103377.00
2023-01-21T17:32:10.612Z,103383.66
2023-01-21T17:34:40.467Z,103385.09
2023-01-21T17:37:45.178Z,103387.13
2023-01-21T17:40:34.687Z,103392.16
2023-01-21T17:43:21.965Z,103400.03
2023-01-21T17:45:53.021Z,103398.25
2023-01-21T17:48:24.801Z,103396.28
2023-01-21T17:50:54.320Z,103393.28
2023-01-21T17:53:28.839Z,103400.09
2023-01-21T17:56:01.497Z,103402.22
2023-01-21T17:58:49.639Z,103392.88
2023-01-21T18:01:21.226Z,103402.59
2023-01-21T18:03:49.788Z,103394.13
2023-01-21T18:06:20.531Z,103398.97
2023-01-21T18:08:50.460Z,103401.97
2023-01-21T18:11:19.470Z,103390.78
2023-01-21T18:13:49.252Z,103394.78
2023-01-21T18:16:17.373Z,103394.97
2023-01-21T18:18:45.834Z,103393.47
2023-01-21T18:21:19.711Z,103395.94
2023-01-21T18:23:48.626Z,103399.09
2023-01-21T18:26:23.941Z,103401.97
2023-01-21T18:28:53.513Z,103403.09
2023-01-21T18:31:22.697Z,103402.44
2023-01-21T18:33:51.029Z,103408.16
2023-01-21T18:36:19.141Z,103413.78
2023-01-21T18:38:50.350Z,103416.72
2023-01-21T18:41:18.581Z,103416.06
2023-01-21T18:45:01.290Z,103418.06
2023-01-21T18:47:32.041Z,103419.97
2023-01-21T18:50:03.000Z,103424.53
2023-01-21T18:52:31.050Z,103422.16
2023-01-21T18:54:59.221Z,103420.72
2023-01-21T18:57:27.847Z,103416.56
2023-01-21T19:00:47.117Z,103420.97
2023-01-21T19:03:17.185Z,103423.00
2023-01-21T19:05:49.422Z,103417.72
2023-01-21T19:08:27.700Z,103417.91
2023-01-21T19:10:56.121Z,103423.69
2023-01-21T19:13:24.710Z,103424.56
2023-01-21T19:15:55.773Z,103429.31
2023-01-21T19:18:27.238Z,103429.22
2023-01-21T19:20:55.493Z,103425.19
2023-01-21T19:23:24.204Z,103431.47
2023-01-21T19:25:55.777Z,103436.22
2023-01-21T19:28:25.947Z,103443.41
2023-01-21T19:30:55.576Z,103445.28
2023-01-21T19:33:26.270Z,103446.44
2023-01-21T19:36:00.492Z,103444.78
2023-01-21T19:38:29.073Z,103436.00
2023-01-21T19:40:57.433Z,103444.09
2023-01-21T19:43:25.554Z,103435.13
2023-01-21T19:45:55.802Z,103442.44
2023-01-21T19:48:25.467Z,103447.03
2023-01-21T19:50:53.556Z,103443.75
2023-01-21T19:53:23.249Z,103441.16
2023-01-21T19:55:51.472Z,103433.25
2023-01-21T19:58:22.089Z,103435.94
2023-01-21T20:00:52.701Z,103435.16
2023-01-21T20:03:22.160Z,103442.38
2023-01-21T20:05:53.880Z,103443.34
2023-01-21T20:08:24.811Z,103436.19
2023-01-21T20:10:53.061Z,103444.25
2023-01-21T20:13:21.388Z,103439.34
2023-01-21T20:16:41.422Z,103447.63
2023-01-21T20:19:12.391Z,103447.81
2023-01-21T20:21:55.077Z,103442.47
2023-01-21T20:24:30.431Z,103447.81
2023-01-21T20:26:58.997Z,103454.94
2023-01-21T20:29:27.481Z,103452.28
2023-01-21T20:31:55.830Z,103449.69
2023-01-21T20:35:16.919Z,103455.38
2023-01-21T20:37:51.122Z,103449.44
2023-01-21T20:40:22.747Z,103456.66
2023-01-21T20:42:51.684Z,103445.31
2023-01-21T20:45:23.056Z,103448.81
2023-01-21T20:47:53.150Z,103451.50
2023-01-21T20:50:23.174Z,103451.50
2023-01-21T20:52:54.156Z,103457.75
2023-01-21T20:55:24.440Z,103453.72
2023-01-21T20:57:52.655Z,103461.50
2023-01-21T21:00:24.937Z,103453.63
2023-01-21T21:02:55.631Z,103452.16
2023-01-21T21:05:24.001Z,103459.41
2023-01-21T21:07:54.010Z,103461.44
2023-01-21T21:10:23.911Z,103456.81
2023-01-21T21:12:52.620Z,103459.41
2023-01-21T21:15:21.060Z,103469.34
2023-01-21T21:17:49.823Z,103466.63
2023-01-21T21:20:20.907Z,103471.50
2023-01-21T21:22:48.988Z,103472.44
2023-01-21T21:25:20.846Z,103478.81
2023-01-21T21:27:49.969Z,103475.38
2023-01-21T21:30:21.465Z,103484.22
2023-01-21T21:32:49.611Z,103486.09
2023-01-21T21:35:24.480Z,103484.47
2023-01-21T21:38:18.460Z,103488.16
2023-01-21T21:40:47.882Z,103489.97
2023-01-21T21:43:32.843Z,103489.97
2023-01-21T21:46:23.768Z,103487.63
2023-01-21T21:48:52.662Z,103478.59
2023-01-21T21:51:22.166Z,103474.34
2023-01-21T21:53:51.012Z,103484.28
2023-01-21T21:56:21.981Z,103473.72
2023-01-21T21:58:50.791Z,103480.81
2023-01-21T22:01:22.011Z,103486.16
2023-01-21T22:03:50.403Z,103491.53
2023-01-21T22:06:19.878Z,103489.66
2023-01-21T22:08:48.098Z,103484.41
2023-01-21T22:11:23.172Z,103479.22
2023-01-21T22:13:52.619Z,103490.69
2023-01-21T22:16:22.294Z,103488.19
2023-01-21T22:18:50.593Z,103488.34
2023-01-21T22:21:21.601Z,103485.06
2023-01-21T22:23:50.299Z,103482.16
2023-01-21T22:26:20.145Z,103481.28
2023-01-21T22:28:51.270Z,103490.22
2023-01-21T22:31:20.181Z,103499.19
2023-01-21T22:33:48.971Z,103491.34
2023-01-21T22:36:19.045Z,103498.56
2023-01-21T22:40:03.395Z,103497.59
2023-01-21T22:42:31.463Z,103492.59
2023-01-21T22:45:00.814Z,103505.06
2023-01-21T22:47:32.094Z,103504.28
2023-01-21T22:50:00.196Z,103507.00
2023-01-21T22:52:28.677Z,103503.41
2023-01-21T22:54:56.719Z,103494.63
2023-01-21T22:57:24.768Z,103499.31
2023-01-21T22:59:52.855Z,103502.78
2023-01-21T23:02:25.392Z,103500.28
2023-01-21T23:04:53.519Z,103498.53
2023-01-21T23:07:21.520Z,103501.19
2023-01-21T23:09:50.200Z,103491.47
2023-01-21T23:12:19.721Z,103500.56
2023-01-21T23:14:48.208Z,103486.53
2023-01-21T23:17:16.732Z,103485.75
2023-01-21T23:19:46.234Z,103486.69
2023-01-21T23:22:14.277Z,103483.16
2023-01-21T23:24:42.302Z,103484.19
2023-01-21T23:27:10.396Z,103481.50
2023-01-21T23:29:38.458Z,103477.09
2023-01-21T23:32:07.028Z,103480.03
2023-01-21T23:34:35.265Z,103480.66
2023-01-21T23:37:04.770Z,103483.47
2023-01-21T23:39:32.943Z,103480.94
2023-01-21T23:42:00.962Z,103485.34
2023-01-21T23:44:29.020Z,103477.41
2023-01-21T23:46:57.057Z,103480.19
2023-01-21T23:49:25.217Z,103482.91
2023-01-21T23:51:53.229Z,103482.06
2023-01-21T23:54:22.710Z,103478.59
2023-01-21T23:56:50.823Z,103477.78
2023-01-21T23:59:19.144Z,103478.69
